Impacts TAF Board
For situational awareness. Not to be used for flight planning purposes.
IDs:

KMCO - Orlando Intl, FL, US

Issued at 1451 UTC 10 Aug 2022
Updated at 1502 UTC 10 Aug 2022
Potential Impact None Slight Moderate High
Time1453Z 10/16Z 10/17Z 10/18Z 10/19Z 10/20Z 10/21Z 10/22Z 10/23Z 11/00Z 11/01Z 11/02Z 11/03Z 11/04Z>>
Type OBS PRVL PRVL PRVL PRVL PRVL PRVL PRVL PRVL PRVL PRVL PRVL PRVL PRVL
VIS 10 >6 >6 >6 >6 >6 >6 >6 >6 >6 >6 >6 >6 >6
CIG -- -- -- -- -- -- -- -- -- -- -- -- -- --
Cover SCT SCT SCT SCT SCT SCT SCT SCT SCT SCT SCT SCT SCT SCT
FltCat VFR VFR VFR VFR VFR VFR VFR VFR VFR VFR VFR VFR VFR VFR
WX -- -- -- -- -- VCTS VCTS VCTS VCTS -- -- -- -- --
WDir 170 150 150 150 150 140 140 140 140 150 150 150 150 150
WSpd 6 7 7 7 7 9 9 9 9 4 4 4 4 4
WGst -- -- -- -- -- -- -- -- -- -- -- -- -- --
WSHgt -- -- -- -- -- -- -- -- -- -- -- -- -- --
WSDir -- -- -- -- -- -- -- -- -- -- -- -- -- --
WSSpd -- -- -- -- -- -- -- -- -- -- -- -- -- --
Raw TAF
KMCO 101451Z 1015/1118 15007KT P6SM SCT020 SCT300
  FM102000 14009KT P6SM VCTS SCT040CB
  FM110000 15004KT P6SM FEW040 SCT250
  FM111500 16007KT P6SM SCT035 SCT250


Raw METAR
KMCO 101453Z 17006KT 10SM SCT026 SCT300 31/23 A3021 RMK AO2 SLP228 T03060233 53009
KMCO 101353Z 14007KT 8SM SCT018 SCT300 30/25 A3020 RMK AO2 SLP224 T03000250
KMCO 101253Z 16003KT 7SM FEW300 28/25 A3019 RMK AO2 SLP221 T02780250

METAR Board
Radar Display
Forecast Discussion
For situational awareness. Not to be used for flight planning purposes.